Time;durP1;ratioP1;P1;durP2;ratioP2;P2;SDS_P1;SDS_P2;PMS_P1;PMS_P2;Temp;Humidity;BMP_temperature;BMP_pressure;BME280_temperature;BME280_humidity;BME280_pressure;Samples;Min_cycle;Max_cycle;Signal;HPM_P1;HPM_P2
2022/05/17 00:00:45;;;;;;;5.38;3.53;;;;;;;9.62;100.00;93588.69;2082006;28;20914;-83
2022/05/17 00:01:46;;;;;;;5.80;3.28;;;;;;;9.59;100.00;93579.53;2090197;28;20032;-84
2022/05/17 00:02:47;;;;;;;6.50;3.53;;;;;;;9.51;100.00;93580.75;2106866;28;20565;-84
2022/05/17 00:03:48;;;;;;;5.65;3.42;;;;;;;9.45;100.00;93578.94;2106872;28;20016;-83
2022/05/17 00:04:50;;;;;;;8.38;3.88;;;;;;;9.56;100.00;93569.66;2106885;28;20107;-84
2022/05/17 00:05:51;;;;;;;5.72;3.30;;;;;;;9.64;100.00;93569.59;2098523;28;20500;-84
2022/05/17 00:06:51;;;;;;;7.38;3.30;;;;;;;9.58;100.00;93570.03;2091019;28;20028;-83
2022/05/17 00:07:53;;;;;;;4.72;3.22;;;;;;;9.56;100.00;93568.91;2098588;28;20048;-83
2022/05/17 00:08:54;;;;;;;8.07;4.00;;;;;;;9.47;100.00;93576.63;2098563;28;20116;-83
2022/05/17 00:09:55;;;;;;;6.45;3.75;;;;;;;9.39;100.00;93575.16;2090101;28;20025;-84
2022/05/17 00:10:56;;;;;;;7.13;3.53;;;;;;;9.57;100.00;93573.84;2098602;28;20029;-83
2022/05/17 00:11:57;;;;;;;8.20;3.65;;;;;;;9.43;100.00;93573.22;2106543;28;20492;-83
2022/05/17 00:12:58;;;;;;;6.45;3.45;;;;;;;9.44;100.00;93572.84;2090380;28;20045;-83
2022/05/17 00:13:59;;;;;;;6.93;3.30;;;;;;;9.52;100.00;93570.84;2082838;28;20051;-84
2022/05/17 00:15:00;;;;;;;7.13;3.22;;;;;;;9.54;100.00;93568.56;2099419;28;20032;-84
2022/05/17 00:16:02;;;;;;;5.97;3.60;;;;;;;9.49;100.00;93566.31;2100155;28;20086;-85
2022/05/17 00:17:04;;;;;;;5.95;3.35;;;;;;;9.35;100.00;93561.88;2091979;28;20425;-84
2022/05/17 00:18:05;;;;;;;6.30;3.65;;;;;;;9.24;100.00;93569.22;2084025;28;20100;-83
2022/05/17 00:19:07;;;;;;;5.18;3.13;;;;;;;9.29;100.00;93566.13;2084208;28;20025;-83
2022/05/17 00:20:09;;;;;;;7.03;3.50;;;;;;;9.43;100.00;93563.31;2092180;28;20027;-83
2022/05/17 00:21:10;;;;;;;7.40;3.40;;;;;;;9.47;100.00;93573.94;2098794;28;20031;-83
2022/05/17 00:22:11;;;;;;;6.30;3.55;;;;;;;9.51;100.00;93564.75;2099235;28;20489;-84
2022/05/17 00:23:15;;;;;;;5.32;3.20;;;;;;;9.41;100.00;93560.28;2105260;28;20054;-83
2022/05/17 00:24:18;;;;;;;7.32;3.40;;;;;;;9.22;100.00;93566.19;2099485;28;20436;-83
2022/05/17 00:25:23;;;;;;;6.13;3.50;;;;;;;9.29;100.00;93558.13;2099801;28;20032;-85
2022/05/17 00:26:25;;;;;;;7.55;3.60;;;;;;;9.37;100.00;93569.50;2107101;28;20038;-83
2022/05/17 00:27:26;;;;;;;7.32;3.25;;;;;;;9.30;100.00;93565.72;2099154;28;20020;-83
2022/05/17 00:28:30;;;;;;;7.35;3.15;;;;;;;9.37;100.00;93566.81;2090289;28;20409;-83
2022/05/17 00:29:31;;;;;;;4.10;3.30;;;;;;;9.34;100.00;93566.44;2098953;28;20024;-84
2022/05/17 00:30:32;;;;;;;13.27;3.10;;;;;;;9.39;100.00;93567.94;2098356;28;20028;-84
2022/05/17 00:31:34;;;;;;;10.38;3.60;;;;;;;9.26;100.00;93565.03;2098251;28;20113;-84
2022/05/17 00:32:35;;;;;;;5.97;3.33;;;;;;;9.30;100.00;93557.72;2090611;28;20414;-83
2022/05/17 00:33:36;;;;;;;6.43;3.30;;;;;;;9.37;100.00;93569.50;2089952;28;20075;-84
2022/05/17 00:34:37;;;;;;;7.30;3.30;;;;;;;9.23;100.00;93562.38;2090199;28;20493;-83
2022/05/17 00:35:39;;;;;;;8.68;3.38;;;;;;;9.13;100.00;93561.34;2106786;28;20023;-84
2022/05/17 00:36:40;;;;;;;5.55;3.40;;;;;;;9.15;100.00;93552.94;2106731;28;20027;-83
2022/05/17 00:37:41;;;;;;;6.57;3.28;;;;;;;9.15;100.00;93559.03;2098537;28;20025;-83
2022/05/17 00:38:42;;;;;;;4.68;3.25;;;;;;;9.05;100.00;93555.31;2106444;28;20044;-83
2022/05/17 00:39:43;;;;;;;8.38;4.03;;;;;;;9.21;100.00;93560.09;2114767;28;20381;-84
2022/05/17 00:40:45;;;;;;;7.00;3.58;;;;;;;9.06;100.00;93554.16;2106583;28;20491;-83
2022/05/17 00:41:46;;;;;;;6.30;3.15;;;;;;;9.03;100.00;93554.91;2098712;28;20748;-84
2022/05/17 00:42:47;;;;;;;8.05;3.78;;;;;;;8.96;100.00;93554.25;2106609;28;20028;-84
2022/05/17 00:45:09;;;;;;;3.40;2.80;;;;;;;8.94;100.00;93559.97;2103541;28;20020;-84
2022/05/17 00:46:10;;;;;;;8.60;3.05;;;;;;;8.98;100.00;93560.69;2098060;28;20024;-85
2022/05/17 00:47:23;;;;;;;7.72;3.55;;;;;;;8.97;100.00;93561.09;2089875;28;20028;-85
2022/05/17 00:48:24;;;;;;;6.72;2.97;;;;;;;8.93;100.00;93563.03;2093225;28;20029;-84
2022/05/17 00:49:43;;;;;;;4.88;3.13;;;;;;;8.91;100.00;93554.66;2097910;28;20028;-83
2022/05/17 00:50:48;;;;;;;6.90;3.40;;;;;;;8.93;100.00;93565.69;2100623;28;20031;-84
2022/05/17 00:51:49;;;;;;;5.45;3.60;;;;;;;8.92;100.00;93558.84;2107026;28;20024;-83
2022/05/17 00:52:53;;;;;;;6.63;2.90;;;;;;;8.85;100.00;93559.66;2097469;28;20490;-84
2022/05/17 00:54:10;;;;;;;8.10;3.63;;;;;;;8.91;100.00;93565.31;2106626;28;20591;-85
2022/05/17 00:55:16;;;;;;;5.85;3.40;;;;;;;8.83;100.00;93560.06;2106406;28;20027;-83
2022/05/17 00:56:21;;;;;;;5.47;2.90;;;;;;;8.88;100.00;93560.78;2091256;28;20049;-83
2022/05/17 00:57:30;;;;;;;4.72;3.38;;;;;;;8.92;100.00;93559.59;2099155;28;20021;-84
2022/05/17 00:58:50;;;;;;;5.57;3.40;;;;;;;8.83;100.00;93564.63;2107530;28;20604;-84
2022/05/17 00:59:52;;;;;;;6.85;3.20;;;;;;;8.82;100.00;93555.88;2109159;28;20020;-83
2022/05/17 01:01:02;;;;;;;8.07;3.40;;;;;;;8.78;100.00;93560.47;2106684;28;20024;-83
2022/05/17 01:02:07;;;;;;;4.75;2.97;;;;;;;8.70;100.00;93551.03;2107735;28;20113;-82
2022/05/17 01:03:11;;;;;;;6.30;3.33;;;;;;;8.72;100.00;93558.63;2098815;28;20079;-82
2022/05/17 01:04:19;;;;;;;6.70;3.03;;;;;;;8.69;100.00;93559.38;2098176;28;20020;-82
2022/05/17 01:05:23;;;;;;;8.02;3.47;;;;;;;8.68;100.00;93555.22;2107540;28;20028;-84
2022/05/17 01:06:32;;;;;;;4.72;3.00;;;;;;;8.72;100.00;93559.38;2106231;28;20016;-83
2022/05/17 01:07:42;;;;;;;6.90;3.13;;;;;;;8.69;100.00;93557.50;2100575;28;20020;-83
2022/05/17 01:08:43;;;;;;;6.25;3.30;;;;;;;8.67;100.00;93561.69;2115005;28;20448;-83
2022/05/17 01:10:18;;;;;;;5.97;2.83;;;;;;;8.68;100.00;93550.63;2105770;28;20028;-83
2022/05/17 01:11:19;;;;;;;5.65;3.17;;;;;;;8.71;100.00;93547.19;2102518;28;20024;-83
2022/05/17 01:12:20;;;;;;;5.90;3.25;;;;;;;8.68;100.00;93553.31;2097967;28;20024;-83
2022/05/17 01:14:57;;;;;;;6.10;3.08;;;;;;;8.66;100.00;93546.88;2097388;28;20032;-83
2022/05/17 01:15:59;;;;;;;3.72;2.80;;;;;;;8.71;100.00;93557.09;2099846;28;20032;-84
2022/05/17 01:17:00;;;;;;;3.65;2.88;;;;;;;8.69;100.00;93559.38;2089649;28;20075;-85
2022/05/17 01:18:03;;;;;;;7.28;3.45;;;;;;;8.71;100.00;93552.53;2098001;28;20027;-83
2022/05/17 01:19:07;;;;;;;3.13;2.47;;;;;;;8.74;100.00;93557.09;2114656;28;20088;-85
2022/05/17 01:20:12;;;;;;;4.18;2.65;;;;;;;8.70;100.00;93555.59;2098112;28;20401;-83
2022/05/17 01:21:13;;;;;;;3.60;2.60;;;;;;;8.69;100.00;93554.06;2098996;28;20495;-83
2022/05/17 01:22:14;;;;;;;6.03;2.67;;;;;;;8.68;100.00;93550.63;2097884;28;20033;-82
2022/05/17 01:23:15;;;;;;;4.63;2.88;;;;;;;8.69;100.00;93556.72;2089636;28;20021;-84
2022/05/17 01:24:16;;;;;;;5.00;2.75;;;;;;;8.67;100.00;93551.78;2097879;28;20067;-84
2022/05/17 01:25:17;;;;;;;4.30;2.75;;;;;;;8.77;100.00;93553.63;2097642;28;20024;-84
2022/05/17 01:26:21;;;;;;;3.47;2.53;;;;;;;8.63;100.00;93551.06;2097811;28;20531;-84
2022/05/17 01:27:54;;;;;;;4.10;2.97;;;;;;;8.64;100.00;93552.56;2106726;28;20031;-84
2022/05/17 01:28:55;;;;;;;5.05;2.83;;;;;;;8.82;100.00;93544.44;2110154;28;20046;-84
2022/05/17 01:29:56;;;;;;;5.38;2.85;;;;;;;8.90;100.00;93543.22;2106057;28;20020;-83
2022/05/17 01:31:03;;;;;;;5.00;2.83;;;;;;;8.77;100.00;93544.88;2089398;28;20090;-84
2022/05/17 01:32:05;;;;;;;5.60;2.65;;;;;;;8.68;100.00;93549.88;2083310;28;20792;-83
2022/05/17 01:33:12;;;;;;;5.03;2.80;;;;;;;8.73;100.00;93544.88;2081451;28;20453;-84
2022/05/17 01:34:14;;;;;;;7.55;3.40;;;;;;;8.63;100.00;93540.41;2098598;28;20063;-85
2022/05/17 01:35:15;;;;;;;6.63;3.28;;;;;;;8.67;100.00;93540.38;2097799;28;20033;-83
2022/05/17 01:36:21;;;;;;;4.82;3.08;;;;;;;8.58;100.00;93541.59;2097657;28;20084;-83
2022/05/17 01:37:22;;;;;;;4.82;3.10;;;;;;;8.58;100.00;93543.50;2090856;28;20045;-83
2022/05/17 01:38:23;;;;;;;5.70;3.17;;;;;;;8.51;100.00;93543.53;2089383;28;20021;-84
2022/05/17 01:39:23;;;;;;;6.57;2.80;;;;;;;8.50;100.00;93548.09;2089354;28;20047;-82
2022/05/17 01:40:26;;;;;;;6.30;3.50;;;;;;;8.52;100.00;93540.50;2089309;28;20029;-84
2022/05/17 01:41:27;;;;;;;6.07;2.90;;;;;;;8.53;100.00;93535.91;2089750;28;20048;-82
2022/05/17 01:42:27;;;;;;;5.95;3.85;;;;;;;8.49;100.00;93541.28;2097714;28;20393;-85
2022/05/17 01:43:28;;;;;;;4.35;3.20;;;;;;;8.55;100.00;93538.94;2097812;28;20115;-85
2022/05/17 01:44:30;;;;;;;6.63;3.60;;;;;;;8.55;100.00;93538.94;2097697;28;20062;-83
2022/05/17 01:45:31;;;;;;;3.97;3.25;;;;;;;8.46;100.00;93543.94;2081378;28;20025;-84
2022/05/17 01:46:32;;;;;;;6.65;3.30;;;;;;;8.43;100.00;93537.50;2096948;28;20017;-83
2022/05/17 01:47:33;;;;;;;8.20;2.75;;;;;;;8.46;100.00;93539.38;2089569;28;20119;-83
2022/05/17 01:48:36;;;;;;;7.03;3.70;;;;;;;8.51;100.00;93546.19;2097959;28;20028;-84
2022/05/17 01:49:37;;;;;;;4.93;3.28;;;;;;;8.36;100.00;93548.19;2106077;28;20020;-84
2022/05/17 01:50:38;;;;;;;4.68;3.10;;;;;;;8.34;100.00;93542.50;2112071;28;20043;-84
2022/05/17 01:52:03;;;;;;;4.45;3.30;;;;;;;8.44;100.00;93547.00;2105832;28;20509;-85
2022/05/17 01:53:05;;;;;;;5.30;3.70;;;;;;;8.49;100.00;93535.19;2109491;28;20034;-85
2022/05/17 01:54:06;;;;;;;6.47;3.25;;;;;;;8.35;100.00;93538.69;2106188;28;20443;-84
2022/05/17 01:55:07;;;;;;;5.95;3.38;;;;;;;8.37;100.00;93538.31;2106128;28;20116;-84
2022/05/17 01:56:09;;;;;;;6.63;2.97;;;;;;;8.42;100.00;93535.97;2106055;28;20019;-84
2022/05/17 01:57:10;;;;;;;6.35;3.40;;;;;;;8.45;100.00;93539.78;2097827;28;20024;-83
2022/05/17 01:58:11;;;;;;;9.57;3.40;;;;;;;8.47;100.00;93540.91;2106182;28;20472;-84
2022/05/17 01:59:12;;;;;;;4.60;3.13;;;;;;;8.51;100.00;93538.19;2097663;28;20483;-86
2022/05/17 02:00:16;;;;;;;5.72;3.45;;;;;;;8.46;100.00;93542.03;2089654;28;20040;-84
2022/05/17 02:01:17;;;;;;;12.45;4.00;;;;;;;8.38;100.00;93535.25;2106690;27;20024;-84
2022/05/17 02:02:18;;;;;;;5.80;3.30;;;;;;;8.29;100.00;93537.56;2105962;28;20468;-85
2022/05/17 02:03:19;;;;;;;8.43;3.53;;;;;;;8.28;100.00;93536.06;2097793;28;20024;-85
2022/05/17 02:04:20;;;;;;;5.50;3.28;;;;;;;8.24;100.00;93537.97;2097335;28;20016;-83
2022/05/17 02:05:23;;;;;;;7.63;2.95;;;;;;;8.26;100.00;93533.03;2097854;28;20055;-83
2022/05/17 02:06:25;;;;;;;6.43;3.10;;;;;;;8.38;100.00;93535.25;2097832;28;20024;-86
2022/05/17 02:07:26;;;;;;;6.28;2.97;;;;;;;8.32;100.00;93537.53;2089655;28;20032;-83
2022/05/17 02:08:27;;;;;;;5.18;3.10;;;;;;;8.39;100.00;93538.69;2089430;28;20798;-82
2022/05/17 02:09:28;;;;;;;8.27;3.58;;;;;;;8.35;100.00;93537.91;2085864;28;20108;-83
2022/05/17 02:10:29;;;;;;;4.82;3.33;;;;;;;8.34;100.00;93539.84;2089541;28;20017;-83
2022/05/17 02:13:16;;;;;;;;;;;;;;;8.41;100.00;93539.03;2122593;27;20479;-82
2022/05/17 02:14:17;;;;;;;5.93;2.88;;;;;;;8.47;100.00;93537.47;2104522;28;19919;-82
2022/05/17 02:15:18;;;;;;;5.18;3.08;;;;;;;8.40;100.00;93534.88;2088043;28;20053;-82
2022/05/17 02:16:19;;;;;;;5.47;3.13;;;;;;;8.30;100.00;93544.41;2096198;28;20052;-82
2022/05/17 02:17:20;;;;;;;5.03;3.20;;;;;;;8.38;100.00;93537.91;2104368;28;20020;-83
2022/05/17 02:18:21;;;;;;;5.35;2.95;;;;;;;8.33;100.00;93538.28;2096176;28;20028;-81
2022/05/17 02:19:23;;;;;;;7.30;3.47;;;;;;;8.15;100.00;93543.72;2079759;28;20562;-83
2022/05/17 02:20:24;;;;;;;4.38;3.20;;;;;;;8.19;100.00;93538.38;2088164;28;20072;-83
2022/05/17 02:21:25;;;;;;;5.25;3.05;;;;;;;8.21;100.00;93536.09;2096006;28;20025;-82
2022/05/17 02:22:26;;;;;;;4.78;3.13;;;;;;;8.16;100.00;93539.91;2096125;28;20398;-83
2022/05/17 02:23:27;;;;;;;5.82;3.40;;;;;;;8.19;100.00;93536.47;2087960;28;20029;-82
2022/05/17 02:24:28;;;;;;;3.83;3.05;;;;;;;8.11;100.00;93545.66;2087917;28;20036;-81
2022/05/17 02:25:29;;;;;;;5.22;3.53;;;;;;;8.07;100.00;93537.69;2087883;28;20091;-81
2022/05/17 02:26:31;;;;;;;7.43;3.55;;;;;;;8.11;100.00;93536.91;2087675;28;20502;-82
2022/05/17 02:27:32;;;;;;;4.85;3.00;;;;;;;8.13;100.00;93542.63;2089071;28;20029;-82
2022/05/17 02:28:33;;;;;;;6.47;3.33;;;;;;;8.16;100.00;93536.50;2112933;28;20023;-83
2022/05/17 02:29:34;;;;;;;8.38;3.40;;;;;;;8.19;100.00;93544.47;2112902;28;20027;-82
2022/05/17 02:30:36;;;;;;;5.50;3.15;;;;;;;8.15;100.00;93542.97;2096132;28;20025;-81
2022/05/17 02:31:37;;;;;;;7.70;3.50;;;;;;;8.03;100.00;93546.84;2088067;28;20028;-81
2022/05/17 02:32:47;;;;;;;3.80;2.70;;;;;;;8.04;100.00;93540.38;2094603;28;20090;-84
2022/05/17 02:33:48;;;;;;;4.88;3.15;;;;;;;8.06;100.00;93540.75;2089049;28;20036;-82
2022/05/17 02:34:49;;;;;;;5.47;3.10;;;;;;;8.07;100.00;93542.25;2087776;28;20750;-82
2022/05/17 02:35:50;;;;;;;6.88;3.38;;;;;;;8.10;100.00;93543.38;2088020;28;20026;-81
2022/05/17 02:36:51;;;;;;;4.35;3.25;;;;;;;8.11;100.00;93540.31;2087666;28;20025;-82
2022/05/17 02:37:52;;;;;;;4.50;3.30;;;;;;;8.11;100.00;93550.97;2079399;28;20080;-81
2022/05/17 02:38:53;;;;;;;5.43;3.38;;;;;;;8.13;100.00;93534.63;2087798;28;20025;-82
2022/05/17 02:39:54;;;;;;;3.90;3.25;;;;;;;8.16;100.00;93545.25;2104003;28;20028;-82
2022/05/17 02:40:55;;;;;;;6.85;3.28;;;;;;;8.21;100.00;93547.53;2095977;28;20503;-81
2022/05/17 02:41:55;;;;;;;8.50;3.20;;;;;;;8.10;100.00;93546.81;2096022;28;20465;-81
2022/05/17 02:42:56;;;;;;;5.43;2.70;;;;;;;8.12;100.00;93546.41;2104234;28;20036;-81
2022/05/17 02:43:57;;;;;;;4.00;2.80;;;;;;;8.01;100.00;93544.56;2087747;28;20020;-82
2022/05/17 02:44:58;;;;;;;5.13;3.42;;;;;;;7.96;100.00;93552.22;2095966;28;20025;-83
2022/05/17 02:45:59;;;;;;;5.65;3.25;;;;;;;8.12;100.00;93549.84;2079611;28;20029;-82
2022/05/17 02:47:01;;;;;;;5.47;3.50;;;;;;;8.05;100.00;93547.97;2095896;28;20029;-82
2022/05/17 02:48:02;;;;;;;8.23;3.03;;;;;;;8.02;100.00;93555.97;2104414;28;20020;-82
2022/05/17 02:49:07;;;;;;;6.18;3.03;;;;;;;8.10;100.00;93551.38;2095759;28;20057;-81
2022/05/17 02:50:09;;;;;;;3.80;2.90;;;;;;;8.18;100.00;93558.19;2097210;28;20024;-82
2022/05/17 02:51:13;;;;;;;5.03;3.22;;;;;;;8.08;100.00;93549.13;2104306;28;20204;-83
2022/05/17 02:52:14;;;;;;;5.68;3.28;;;;;;;8.03;100.00;93550.28;2104793;28;20103;-82
2022/05/17 02:53:15;;;;;;;3.60;2.90;;;;;;;7.91;100.00;93552.63;2104265;28;20112;-82
2022/05/17 02:54:16;;;;;;;7.40;3.35;;;;;;;7.89;100.00;93549.56;2095690;28;20127;-81
2022/05/17 02:55:17;;;;;;;3.58;2.70;;;;;;;7.99;100.00;93554.06;2087681;28;20029;-83
2022/05/17 02:56:18;;;;;;;6.45;3.15;;;;;;;8.05;100.00;93555.19;2095991;28;20021;-81
2022/05/17 02:57:19;;;;;;;6.38;3.35;;;;;;;8.08;100.00;93552.53;2104299;28;20047;-82
2022/05/17 02:58:20;;;;;;;7.35;3.03;;;;;;;8.01;100.00;93549.13;2095859;28;20107;-82
2022/05/17 02:59:21;;;;;;;4.15;3.03;;;;;;;8.01;100.00;93552.56;2087615;28;20025;-81
2022/05/17 03:00:23;;;;;;;4.40;3.22;;;;;;;7.90;100.00;93551.88;2087583;28;20024;-82
2022/05/17 03:01:24;;;;;;;6.13;2.78;;;;;;;7.91;100.00;93553.38;2087725;28;20029;-82
2022/05/17 03:02:26;;;;;;;4.90;3.05;;;;;;;7.92;100.00;93554.88;2087565;28;20029;-81
2022/05/17 03:03:27;;;;;;;5.28;3.30;;;;;;;7.92;100.00;93552.22;2079583;28;20112;-82
2022/05/17 03:04:28;;;;;;;4.45;2.97;;;;;;;7.94;100.00;93563.22;2079781;28;20474;-81
2022/05/17 03:05:29;;;;;;;3.20;2.90;;;;;;;7.94;100.00;93554.47;2079477;28;20108;-82
2022/05/17 03:06:30;;;;;;;3.22;2.92;;;;;;;7.98;100.00;93558.66;2088248;28;20440;-82
2022/05/17 03:07:31;;;;;;;4.40;3.00;;;;;;;7.95;100.00;93559.44;2095792;28;20513;-82
2022/05/17 03:08:32;;;;;;;3.50;3.10;;;;;;;7.99;100.00;93559.41;2092665;28;20025;-83
2022/05/17 03:09:33;;;;;;;4.53;2.97;;;;;;;7.97;100.00;93557.13;2082892;28;20026;-83
2022/05/17 03:10:34;;;;;;;4.30;2.80;;;;;;;7.97;100.00;93564.38;2095858;28;20025;-81
2022/05/17 03:11:36;;;;;;;5.97;3.55;;;;;;;7.91;100.00;93556.03;2097001;28;20021;-83
2022/05/17 03:12:38;;;;;;;4.00;2.95;;;;;;;7.93;100.00;93556.41;2095553;28;20045;-82
2022/05/17 03:13:39;;;;;;;4.88;2.92;;;;;;;7.95;100.00;93558.69;2104277;28;20020;-82
2022/05/17 03:14:40;;;;;;;4.57;3.20;;;;;;;7.94;100.00;93560.56;2095468;28;20050;-82
2022/05/17 03:15:42;;;;;;;3.85;3.22;;;;;;;7.93;100.00;93558.31;2089260;28;20469;-83
2022/05/17 03:16:43;;;;;;;7.43;3.30;;;;;;;7.99;100.00;93565.50;2104175;28;20107;-82
2022/05/17 03:17:44;;;;;;;5.35;3.00;;;;;;;7.97;100.00;93556.38;2104094;28;20066;-82
2022/05/17 03:18:46;;;;;;;5.68;3.20;;;;;;;7.91;100.00;93550.72;2090274;28;20025;-83
2022/05/17 03:19:48;;;;;;;3.95;2.85;;;;;;;7.93;100.00;93558.31;2095700;28;20025;-83
2022/05/17 03:20:50;;;;;;;6.10;2.78;;;;;;;7.95;100.00;93564.00;2087606;28;20490;-81
2022/05/17 03:21:51;;;;;;;5.20;3.25;;;;;;;7.96;100.00;93555.63;2087725;28;20025;-83
2022/05/17 03:22:52;;;;;;;4.28;2.88;;;;;;;8.05;100.00;93557.88;2095611;28;20048;-82
2022/05/17 03:23:53;;;;;;;3.25;2.72;;;;;;;7.93;100.00;93563.63;2094963;28;20099;-82
2022/05/17 03:24:55;;;;;;;6.07;2.58;;;;;;;7.88;100.00;93561.38;2081653;28;20116;-83
2022/05/17 03:25:56;;;;;;;3.83;2.90;;;;;;;7.99;100.00;93562.84;2089264;28;20024;-82
2022/05/17 03:26:58;;;;;;;4.18;2.95;;;;;;;7.96;100.00;93555.63;2081879;28;20052;-82
2022/05/17 03:27:59;;;;;;;5.78;3.13;;;;;;;7.87;100.00;93568.59;2090338;28;20441;-82
2022/05/17 03:29:00;;;;;;;4.40;2.88;;;;;;;7.79;100.00;93559.88;2097847;28;20025;-82
2022/05/17 03:30:01;;;;;;;5.40;3.05;;;;;;;7.79;100.00;93556.47;2090181;28;20024;-81
2022/05/17 03:31:06;;;;;;;4.55;3.05;;;;;;;7.84;100.00;93558.72;2081778;28;20041;-82
2022/05/17 03:32:08;;;;;;;6.82;3.60;;;;;;;7.86;100.00;93560.97;2090996;28;20029;-83
2022/05/17 03:33:10;;;;;;;6.05;3.15;;;;;;;7.88;100.00;93561.38;2096107;28;20025;-83
2022/05/17 03:34:10;;;;;;;4.88;3.00;;;;;;;7.89;100.00;93558.31;2090264;28;20100;-83
2022/05/17 03:35:12;;;;;;;5.90;3.25;;;;;;;7.84;100.00;93561.38;2090198;28;20733;-82
2022/05/17 03:36:13;;;;;;;6.38;2.97;;;;;;;7.79;100.00;93561.78;2083626;28;20028;-83
2022/05/17 03:37:14;;;;;;;4.05;2.60;;;;;;;7.83;100.00;93565.94;2073861;28;20412;-82
2022/05/17 03:38:15;;;;;;;3.42;2.58;;;;;;;7.86;100.00;93563.63;2081794;28;20076;-82
2022/05/17 03:39:16;;;;;;;7.40;3.15;;;;;;;7.83;100.00;93563.28;2081709;28;20036;-83
2022/05/17 03:40:18;;;;;;;4.35;2.85;;;;;;;7.86;100.00;93561.75;2081964;28;20025;-82
2022/05/17 03:41:19;;;;;;;3.72;2.63;;;;;;;7.89;100.00;93563.63;2095826;28;20549;-83
2022/05/17 03:42:20;;;;;;;4.20;2.55;;;;;;;7.87;100.00;93565.19;2098338;28;20025;-81
2022/05/17 03:43:21;;;;;;;6.47;2.65;;;;;;;7.80;100.00;93560.63;2081751;28;20092;-82
2022/05/17 03:44:22;;;;;;;4.78;2.85;;;;;;;7.85;100.00;93562.88;2073718;28;20479;-82
2022/05/17 03:45:42;;;;;;;3.72;3.00;;;;;;;7.83;100.00;93565.94;2081859;28;20045;-82
2022/05/17 03:46:43;;;;;;;2.90;2.70;;;;;;;7.84;100.00;93566.69;2089025;28;20037;-82
2022/05/17 03:47:45;;;;;;;4.78;2.70;;;;;;;7.82;100.00;93575.09;2090188;28;20540;-82
2022/05/17 03:48:46;;;;;;;7.00;3.20;;;;;;;7.87;100.00;93571.25;2081744;28;20753;-83
2022/05/17 03:49:47;;;;;;;5.10;2.80;;;;;;;7.86;100.00;93574.28;2084866;28;20024;-83
2022/05/17 03:50:48;;;;;;;5.18;2.90;;;;;;;7.86;100.00;93568.97;2097201;28;20035;-83
2022/05/17 03:51:49;;;;;;;5.05;3.25;;;;;;;7.85;100.00;93573.53;2081580;28;20406;-82
2022/05/17 03:52:50;;;;;;;5.85;3.03;;;;;;;7.85;100.00;93570.13;2081723;28;20441;-82
2022/05/17 03:53:51;;;;;;;4.25;3.22;;;;;;;7.86;100.00;93569.75;2081890;28;20022;-81
2022/05/17 03:55:00;;;;;;;3.72;2.60;;;;;;;7.90;100.00;93578.47;2073741;28;20116;-82
2022/05/17 03:56:01;;;;;;;4.28;2.72;;;;;;;7.93;100.00;93575.03;2083641;28;20035;-83
2022/05/17 03:57:03;;;;;;;4.15;2.50;;;;;;;7.91;100.00;93568.59;2098203;28;20031;-81
2022/05/17 03:58:04;;;;;;;6.68;2.78;;;;;;;7.94;100.00;93576.53;2089816;28;20029;-82
2022/05/17 03:59:05;;;;;;;5.88;3.00;;;;;;;8.00;100.00;93572.34;2089984;28;20079;-82
2022/05/17 04:00:07;;;;;;;4.20;2.40;;;;;;;8.01;100.00;93565.09;2081724;28;20441;-82
2022/05/17 04:01:08;;;;;;;4.53;2.60;;;;;;;8.05;100.00;93569.28;2081687;28;20049;-82
2022/05/17 04:02:09;;;;;;;4.10;2.53;;;;;;;8.22;100.00;93575.66;2079432;28;20120;-82
2022/05/17 04:03:10;;;;;;;7.68;3.00;;;;;;;8.23;100.00;93574.50;2091764;28;20088;-82
2022/05/17 04:04:12;;;;;;;3.33;2.80;;;;;;;8.25;100.00;93566.91;2089926;28;20108;-80
2022/05/17 04:05:13;;;;;;;3.97;2.80;;;;;;;8.22;100.00;93570.34;2090043;28;20024;-80
2022/05/17 04:06:21;;;;;;;5.43;2.53;;;;;;;8.26;100.00;93570.31;2090032;28;20013;-82
2022/05/17 04:07:23;;;;;;;2.60;2.40;;;;;;;8.23;100.00;93574.50;2090868;28;20067;-82
2022/05/17 04:08:24;;;;;;;6.20;2.67;;;;;;;8.22;100.00;93570.34;2090099;28;20029;-81
2022/05/17 04:09:25;;;;;;;4.45;2.55;;;;;;;8.20;100.00;93572.59;2093633;28;20033;-81
2022/05/17 04:10:26;;;;;;;3.22;2.42;;;;;;;8.15;100.00;93575.69;2089955;28;20028;-83
2022/05/17 04:11:27;;;;;;;5.18;3.20;;;;;;;8.17;100.00;93568.09;2089900;28;20057;-81
2022/05/17 04:12:28;;;;;;;5.75;2.80;;;;;;;8.25;100.00;93584.75;2084122;28;20043;-82
2022/05/17 04:13:31;;;;;;;5.50;3.00;;;;;;;8.21;100.00;93578.69;2081450;28;20624;-81
2022/05/17 04:14:32;;;;;;;5.32;2.60;;;;;;;8.23;100.00;93571.09;2090027;28;20089;-82
2022/05/17 04:15:33;;;;;;;3.30;2.63;;;;;;;8.37;100.00;93573.69;2081628;28;20025;-82
2022/05/17 04:16:36;;;;;;;3.20;2.58;;;;;;;8.36;100.00;93574.81;2073382;28;20055;-82
2022/05/17 04:17:37;;;;;;;6.45;2.92;;;;;;;8.25;100.00;93571.44;2086898;28;20504;-82
2022/05/17 04:18:38;;;;;;;6.82;2.80;;;;;;;8.27;100.00;93574.50;2097994;28;20024;-83
2022/05/17 04:19:40;;;;;;;3.17;2.78;;;;;;;8.49;100.00;93569.81;2089605;28;20056;-82
2022/05/17 04:20:41;;;;;;;6.05;3.50;;;;;;;8.54;100.00;93572.06;2073632;28;20052;-82
2022/05/17 04:21:43;;;;;;;3.13;2.63;;;;;;;8.39;100.00;93576.75;2089768;28;20110;-82
2022/05/17 04:22:46;;;;;;;4.00;2.60;;;;;;;8.41;100.00;93577.09;2089687;28;20028;-83
2022/05/17 04:23:47;;;;;;;4.80;2.83;;;;;;;8.36;100.00;93580.13;2081752;28;20123;-82
2022/05/17 04:24:53;;;;;;;4.60;2.58;;;;;;;8.42;100.00;93575.19;2089818;28;20036;-81
2022/05/17 04:25:54;;;;;;;3.45;2.72;;;;;;;8.38;100.00;93577.88;2097799;28;20058;-83
2022/05/17 04:26:55;;;;;;;3.28;2.80;;;;;;;8.37;100.00;93576.34;2081465;28;20055;-83
2022/05/17 04:27:56;;;;;;;7.13;3.03;;;;;;;8.40;100.00;93574.81;2085421;28;20036;-81
2022/05/17 04:28:57;;;;;;;6.20;2.95;;;;;;;8.40;100.00;93574.81;2097874;28;20612;-82
2022/05/17 04:29:58;;;;;;;8.30;2.88;;;;;;;8.37;100.00;93578.25;2081564;28;20120;-82
2022/05/17 04:30:59;;;;;;;3.88;2.78;;;;;;;8.47;100.00;93575.53;2081716;28;20037;-82
2022/05/17 04:32:00;;;;;;;4.78;2.63;;;;;;;8.51;100.00;93576.25;2081397;28;20021;-83
2022/05/17 04:33:01;;;;;;;4.60;2.40;;;;;;;8.39;100.00;93583.97;2081295;28;20023;-82
2022/05/17 04:34:04;;;;;;;7.03;3.05;;;;;;;8.47;100.00;93578.22;2093486;28;20086;-83
2022/05/17 04:35:05;;;;;;;6.68;2.85;;;;;;;8.50;100.00;93585.41;2098258;28;20024;-82
2022/05/17 04:36:06;;;;;;;3.20;2.63;;;;;;;8.54;100.00;93575.47;2097071;28;20078;-81
2022/05/17 04:37:26;;;;;;;5.93;3.03;;;;;;;8.54;100.00;93577.41;2097716;28;20024;-81
2022/05/17 04:38:27;;;;;;;4.00;2.83;;;;;;;8.62;100.00;93581.53;2078023;28;20161;-83
2022/05/17 04:39:28;;;;;;;4.70;2.70;;;;;;;8.67;100.00;93586.44;2077287;28;20494;-82
2022/05/17 04:40:29;;;;;;;3.85;2.55;;;;;;;8.71;100.00;93581.84;2081070;28;20116;-83
2022/05/17 04:41:30;;;;;;;3.35;2.65;;;;;;;8.78;100.00;93578.34;2081345;28;20029;-81
2022/05/17 04:42:35;;;;;;;9.02;3.45;;;;;;;8.86;100.00;93574.50;2081598;28;20057;-82
2022/05/17 04:43:38;;;;;;;4.15;2.60;;;;;;;8.92;100.00;93572.19;2090221;28;20024;-81
2022/05/17 04:44:39;;;;;;;10.27;3.03;;;;;;;8.97;100.00;93575.16;2091357;28;20031;-82
2022/05/17 04:45:44;;;;;;;5.25;2.58;;;;;;;9.03;100.00;93575.50;2098696;28;20028;-83
2022/05/17 04:46:45;;;;;;;5.30;3.03;;;;;;;9.06;100.00;93570.13;2089428;28;20032;-82
2022/05/17 04:47:46;;;;;;;5.32;2.92;;;;;;;9.12;100.00;93572.38;2073200;28;20952;-83
2022/05/17 04:48:47;;;;;;;3.20;2.90;;;;;;;9.14;100.00;93568.19;2088260;28;20421;-83
2022/05/17 04:49:47;;;;;;;5.07;2.83;;;;;;;9.20;100.00;93571.16;2089264;28;20033;-82
2022/05/17 04:50:48;;;;;;;4.55;2.80;;;;;;;9.24;100.00;93563.88;2081169;28;20018;-81
2022/05/17 04:51:51;;;;;;;4.15;3.00;;;;;;;9.32;100.00;93578.69;2089374;28;20021;-84
2022/05/17 04:52:52;;;;;;;3.80;2.75;;;;;;;9.36;100.00;93566.06;2081429;28;20021;-82
2022/05/17 04:53:53;;;;;;;3.22;2.38;;;;;;;9.41;100.00;93565.63;2081193;28;20029;-82
2022/05/17 04:54:54;;;;;;;4.75;2.70;;;;;;;9.50;100.00;93571.25;2097682;28;20080;-81
2022/05/17 04:55:55;;;;;;;2.97;2.55;;;;;;;9.52;100.00;93571.59;2089396;28;20097;-83
2022/05/17 04:56:56;;;;;;;3.83;2.50;;;;;;;9.58;100.00;93575.38;2089575;28;20076;-82
2022/05/17 04:57:58;;;;;;;4.10;3.13;;;;;;;9.59;100.00;93576.88;2097623;28;20024;-81
2022/05/17 04:58:59;;;;;;;3.30;2.50;;;;;;;9.66;100.00;93572.59;2075129;28;20422;-83